Portada
METAR-TAF:

METAR-TAF

Aeroports :

Dhahran, Aràbia Saudita

latitud: 26-16N, longitud: 050-09E, altitud: 26 m

Observació

L'informe es va fer fa 54 minuts, a les 05:00 UTC
Vent 10 kt del Nord-Oest
Temperatura 33°C
Humitat 21%
Pressió 1004 hPa
Visibilitat 10 km o més
sense núvols per sota de 1500 mi sense presència de cumulonimbus.

METAR: OEDR 220500Z 31010KT CAVOK 33/08 Q1004 NOSIG

Hora: 08:54 (05:54 UTC)

Pronòstic

L'informe es va fer fa 9 hores i 49 minuts, a les 20:05 UTC
Pronòstic vàlid del 22 a les 00 UTC al 23 a les 06 UTC
Vent 11 kt del Oest/Nord-Oest
Visibilitat 10 km o més
sense núvols per sota de 1500 mi sense presència de cumulonimbus.
Evolucionant progressivament
l' 22 a les 05 UTC al 22 a les 07 UTC
Vent 15 kt del Nord
Evolucionant progressivament
l' 22 a les 18 UTC al 22 a les 20 UTC
Vent 8 kt del Oest

TAF: OEDR 212005Z 2200/2306 29011KT CAVOK BECMG 2205/2207 35015KT BECMG 2218/2220 27008KT

Observacions i pronòstics meteorològics de més de 4000 aeroports (METAR i TAF).

Les estacions disponibles són els punts grocs i vermells al mapa.

Posi el ratolí al punt desitjat per veure el nom de l'estació.

Feu clic per veure les observacions i els pronòstics meteorològics.

Per canviar el mapa: feu clic els botons verds amb una creu de color negre per apropar; al botó verd amb un guió per allunyar la imatge; o en les fletxes verdes per a mapes adjacents.


METAR-TAF: